createdAt,value
2018-07-10T00:02:37.215Z,9.98
2018-07-10T00:06:18.358Z,9.90
2018-07-10T00:08:58.824Z,10.50
2018-07-10T00:11:30.356Z,10.10
2018-07-10T00:13:59.106Z,10.30
2018-07-10T00:16:27.602Z,10.25
2018-07-10T00:18:56.458Z,10.10
2018-07-10T00:21:24.890Z,10.38
2018-07-10T00:23:53.678Z,10.38
2018-07-10T00:26:21.943Z,9.50
2018-07-10T00:28:50.210Z,10.10
2018-07-10T00:31:18.514Z,9.10
2018-07-10T00:33:47.421Z,10.10
2018-07-10T00:36:15.935Z,9.10
2018-07-10T00:38:55.287Z,10.40
2018-07-10T00:41:29.871Z,9.95
2018-07-10T00:43:59.060Z,9.25
2018-07-10T00:46:29.181Z,9.98
2018-07-10T00:48:57.768Z,9.73
2018-07-10T00:51:26.777Z,9.70
2018-07-10T00:53:55.161Z,9.43
2018-07-10T00:56:23.883Z,9.40
2018-07-10T00:58:53.133Z,10.18
2018-07-10T01:01:22.305Z,9.55
2018-07-10T01:03:51.352Z,9.73
2018-07-10T01:06:19.915Z,10.50
2018-07-10T01:08:48.221Z,10.60
2018-07-10T01:11:17.048Z,10.45
2018-07-10T01:13:46.404Z,10.85
2018-07-10T01:16:21.184Z,10.28
2018-07-10T01:18:53.729Z,10.72
2018-07-10T01:21:23.361Z,9.85
2018-07-10T01:23:57.072Z,10.93
2018-07-10T01:26:26.345Z,10.63
2018-07-10T01:28:56.085Z,11.00
2018-07-10T01:31:24.388Z,10.72
2018-07-10T01:33:53.073Z,10.60
2018-07-10T01:36:21.569Z,11.60
2018-07-10T01:38:49.785Z,11.10
2018-07-10T01:41:17.879Z,10.10
2018-07-10T01:43:46.576Z,10.90
2018-07-10T01:46:14.760Z,11.35
2018-07-10T01:48:43.170Z,9.30
2018-07-10T01:51:11.782Z,9.30
2018-07-10T01:53:40.089Z,9.57
2018-07-10T01:56:08.286Z,9.78
2018-07-10T01:58:36.762Z,9.50
2018-07-10T02:01:05.358Z,7.65
2018-07-10T02:03:33.907Z,7.87
2018-07-10T02:06:02.662Z,7.80
2018-07-10T02:08:31.214Z,7.58
2018-07-10T02:11:03.564Z,7.30
2018-07-10T02:13:31.796Z,7.40
2018-07-10T02:16:00.294Z,7.80
2018-07-10T02:18:28.904Z,7.45
2018-07-10T02:21:00.839Z,7.12
2018-07-10T02:23:36.306Z,7.93
2018-07-10T02:26:06.842Z,7.10
2018-07-10T02:28:35.153Z,7.33
2018-07-10T02:31:03.893Z,7.03
2018-07-10T02:33:32.371Z,7.08
2018-07-10T02:36:00.561Z,6.80
2018-07-10T02:38:28.770Z,7.10
2018-07-10T02:40:59.103Z,7.10
2018-07-10T02:43:27.785Z,8.00
2018-07-10T02:45:57.278Z,6.90
2018-07-10T02:48:31.463Z,7.30
2018-07-10T02:51:00.228Z,9.05
2018-07-10T02:53:30.263Z,8.23
2018-07-10T02:55:58.922Z,8.60
2018-07-10T02:58:28.687Z,9.55
2018-07-10T03:00:57.252Z,9.13
2018-07-10T03:03:25.872Z,9.00
2018-07-10T03:05:54.476Z,8.30
2018-07-10T03:08:22.954Z,8.00
2018-07-10T03:10:51.056Z,7.57
2018-07-10T03:13:19.432Z,7.75
2018-07-10T03:15:47.652Z,7.72
2018-07-10T03:18:20.026Z,7.20
2018-07-10T03:20:48.341Z,8.43
2018-07-10T03:23:16.815Z,7.70
2018-07-10T03:25:44.926Z,8.63
2018-07-10T03:28:12.957Z,6.40
2018-07-10T03:30:41.524Z,5.83
2018-07-10T03:33:11.874Z,7.10
2018-07-10T03:35:40.302Z,6.87
2018-07-10T03:38:08.892Z,6.90
2018-07-10T03:40:37.347Z,6.20
2018-07-10T03:43:07.389Z,6.20
2018-07-10T03:45:36.417Z,6.65
2018-07-10T03:48:04.912Z,6.12
2018-07-10T03:50:33.020Z,6.60
2018-07-10T03:53:02.034Z,5.90
2018-07-10T03:55:32.048Z,6.30
2018-07-10T03:58:00.548Z,7.00
2018-07-10T04:00:29.863Z,6.05
2018-07-10T04:02:58.470Z,9.63
2018-07-10T04:05:27.158Z,6.30
2018-07-10T04:07:57.178Z,7.90
2018-07-10T04:10:35.876Z,7.60
2018-07-10T04:13:07.872Z,6.25
2018-07-10T04:15:36.345Z,7.67
2018-07-10T04:18:08.065Z,9.35
2018-07-10T04:21:41.363Z,9.90
2018-07-10T04:24:16.404Z,8.80
2018-07-10T04:26:56.725Z,9.15
2018-07-10T04:29:41.025Z,8.73
2018-07-10T04:32:12.985Z,8.15
2018-07-10T04:34:41.516Z,8.33
2018-07-10T04:37:13.782Z,8.90
2018-07-10T04:39:44.183Z,16.32
2018-07-10T04:42:29.115Z,16.60
2018-07-10T04:45:06.570Z,9.20
2018-07-10T04:47:40.957Z,8.40
2018-07-10T04:50:12.444Z,7.50
2018-07-10T04:52:46.147Z,7.10
2018-07-10T04:55:15.644Z,7.00
2018-07-10T04:57:49.262Z,8.95
2018-07-10T05:00:17.440Z,8.18
2018-07-10T05:02:46.049Z,8.28
2018-07-10T05:05:14.039Z,8.55
2018-07-10T05:07:43.158Z,8.75
2018-07-10T05:10:11.063Z,8.13
2018-07-10T05:12:40.076Z,8.75
2018-07-10T05:15:08.476Z,9.33
2018-07-10T05:17:36.896Z,9.33
2018-07-10T05:20:05.391Z,8.80
2018-07-10T05:22:33.869Z,8.55
2018-07-10T05:25:01.971Z,9.43
2018-07-10T05:27:30.446Z,9.05
2018-07-10T05:29:58.975Z,8.60
2018-07-10T05:32:27.604Z,7.40
2018-07-10T05:34:56.421Z,8.20
2018-07-10T05:37:32.067Z,7.70
2018-07-10T05:40:04.198Z,8.33
2018-07-10T05:42:32.313Z,8.10
2018-07-10T05:45:00.992Z,7.70
2018-07-10T05:47:31.727Z,7.87
2018-07-10T05:50:07.052Z,8.28
2018-07-10T05:52:36.067Z,7.70
2018-07-10T05:55:04.505Z,9.70
2018-07-10T05:57:33.156Z,8.15
2018-07-10T06:00:01.779Z,9.00
2018-07-10T06:02:30.252Z,9.83
2018-07-10T06:04:58.441Z,8.40
2018-07-10T06:07:26.629Z,9.40
2018-07-10T06:09:55.206Z,8.90
2018-07-10T06:12:24.922Z,9.38
2018-07-10T06:14:56.351Z,10.38
2018-07-10T06:17:25.461Z,8.63
2018-07-10T06:19:53.644Z,8.60
2018-07-10T06:22:22.832Z,9.68
2018-07-10T06:24:51.480Z,20.07
2018-07-10T06:27:20.711Z,10.58
2018-07-10T06:30:00.081Z,13.83
2018-07-10T06:32:33.262Z,36.13
2018-07-10T06:35:07.901Z,56.77
2018-07-10T06:37:40.770Z,27.95
2018-07-10T06:40:09.221Z,19.67
2018-07-10T06:43:15.016Z,9.98
2018-07-10T06:45:43.317Z,10.50
2018-07-10T06:48:12.637Z,9.80
2018-07-10T06:50:40.923Z,9.30
2018-07-10T06:53:09.696Z,8.38
2018-07-10T06:55:41.840Z,8.70
2018-07-10T06:58:10.789Z,8.28
2018-07-10T07:00:39.276Z,9.15
2018-07-10T07:03:07.637Z,9.40
2018-07-10T07:05:36.024Z,8.80
2018-07-10T07:08:04.578Z,9.70
2018-07-10T07:10:33.136Z,9.73
2018-07-10T07:13:01.746Z,10.50
2018-07-10T07:15:30.136Z,12.45
2018-07-10T07:17:58.035Z,8.43
2018-07-10T07:20:26.000Z,10.40
2018-07-10T07:22:54.630Z,8.20
2018-07-10T07:25:23.108Z,8.08
2018-07-10T07:27:52.427Z,10.63
2018-07-10T07:30:20.830Z,7.75
2018-07-10T07:32:49.229Z,10.43
2018-07-10T07:35:17.577Z,10.50
2018-07-10T07:37:45.845Z,6.22
2018-07-10T07:40:14.035Z,6.05
2018-07-10T07:42:42.301Z,5.28
2018-07-10T07:45:11.346Z,27.25
2018-07-10T07:47:39.422Z,9.87
2018-07-10T07:50:07.814Z,10.90
2018-07-10T07:52:36.508Z,8.35
2018-07-10T07:55:04.848Z,7.25
2018-07-10T07:57:33.236Z,6.58
2018-07-10T08:00:01.826Z,6.78
2018-07-10T08:02:30.331Z,5.80
2018-07-10T08:04:58.710Z,6.23
2018-07-10T08:07:27.306Z,6.33
2018-07-10T08:09:56.881Z,9.73
2018-07-10T08:12:26.209Z,5.87
2018-07-10T08:14:54.805Z,6.30
2018-07-10T08:17:24.181Z,6.60
2018-07-10T08:19:53.769Z,7.17
2018-07-10T08:22:22.502Z,7.90
2018-07-10T08:24:50.855Z,7.50
2018-07-10T08:27:18.947Z,7.67
2018-07-10T08:29:47.555Z,7.15
2018-07-10T08:32:15.863Z,8.10
2018-07-10T08:34:44.345Z,7.60
2018-07-10T08:37:12.511Z,8.05
2018-07-10T08:39:40.954Z,8.85
2018-07-10T08:42:09.563Z,8.70
2018-07-10T08:44:38.054Z,8.80
2018-07-10T08:47:08.250Z,8.90
2018-07-10T08:49:37.284Z,7.70
2018-07-10T08:52:08.060Z,8.40
2018-07-10T08:54:36.257Z,7.50
2018-07-10T08:57:04.353Z,8.05
2018-07-10T08:59:33.260Z,7.97
2018-07-10T09:02:02.683Z,7.80
2018-07-10T09:04:31.072Z,9.60
2018-07-10T09:06:59.568Z,10.30
2018-07-10T09:09:28.393Z,10.32
2018-07-10T09:11:56.972Z,9.40
2018-07-10T09:14:25.365Z,9.05
2018-07-10T09:16:53.910Z,8.53
2018-07-10T09:19:26.010Z,7.50
2018-07-10T09:22:01.500Z,7.53
2018-07-10T09:24:30.121Z,7.17
2018-07-10T09:26:58.903Z,7.53
2018-07-10T09:29:27.562Z,7.30
2018-07-10T09:31:56.894Z,7.40
2018-07-10T09:34:25.386Z,7.80
2018-07-10T09:36:53.765Z,7.55
2018-07-10T09:39:21.974Z,6.78
2018-07-10T09:41:50.962Z,6.60
2018-07-10T09:44:19.708Z,7.20
2018-07-10T09:46:48.092Z,7.22
2018-07-10T09:49:16.204Z,7.22
2018-07-10T09:51:44.791Z,7.00
2018-07-10T09:54:14.092Z,5.58
2018-07-10T09:56:42.206Z,5.40
2018-07-10T09:59:10.816Z,5.17
2018-07-10T10:01:39.132Z,5.80
2018-07-10T10:04:07.796Z,4.80
2018-07-10T10:06:36.834Z,4.00
2018-07-10T10:09:05.752Z,4.40
2018-07-10T10:11:33.940Z,3.83
2018-07-10T10:14:02.434Z,4.95
2018-07-10T10:16:31.058Z,4.25
2018-07-10T10:18:59.701Z,4.00
2018-07-10T10:21:28.747Z,3.92
2018-07-10T10:23:57.435Z,3.40
2018-07-10T10:26:26.379Z,3.10
2018-07-10T10:28:54.982Z,3.25
2018-07-10T10:31:23.486Z,3.40
2018-07-10T10:33:52.398Z,3.02
2018-07-10T10:36:21.098Z,3.15
2018-07-10T10:38:50.005Z,3.10
2018-07-10T10:41:18.492Z,2.70
2018-07-10T10:43:47.522Z,2.60
2018-07-10T10:46:18.389Z,3.10
2018-07-10T10:48:47.392Z,2.92
2018-07-10T10:51:15.871Z,3.08
2018-07-10T10:53:44.617Z,3.83
2018-07-10T10:56:12.932Z,3.30
2018-07-10T10:58:41.446Z,3.10
2018-07-10T11:01:09.925Z,3.20
2018-07-10T11:03:38.305Z,3.00
2018-07-10T11:06:08.012Z,3.00
2018-07-10T11:08:36.038Z,2.92
2018-07-10T11:11:04.617Z,3.15
2018-07-10T11:13:33.023Z,2.98
2018-07-10T11:16:02.413Z,2.90
2018-07-10T11:18:34.733Z,3.42
2018-07-10T11:21:22.643Z,3.60
2018-07-10T11:23:52.714Z,3.72
2018-07-10T11:26:25.755Z,2.80
2018-07-10T11:28:54.838Z,3.08
2018-07-10T11:31:23.302Z,3.02
2018-07-10T11:33:51.902Z,3.10
2018-07-10T11:36:20.020Z,3.50
2018-07-10T11:38:48.778Z,3.22
2018-07-10T11:41:17.328Z,3.90
2018-07-10T11:43:45.816Z,3.62
2018-07-10T11:46:14.225Z,3.80
2018-07-10T11:48:42.454Z,3.77
2018-07-10T11:51:11.542Z,4.00
2018-07-10T11:53:40.154Z,4.00
2018-07-10T11:56:08.625Z,3.58
2018-07-10T11:58:37.541Z,3.60
2018-07-10T12:01:06.065Z,3.90
2018-07-10T12:05:48.326Z,4.08
2018-07-10T12:08:16.525Z,3.95
2018-07-10T12:10:46.272Z,3.60
2018-07-10T12:13:14.751Z,4.95
2018-07-10T12:15:43.245Z,4.53
2018-07-10T12:18:14.790Z,4.60
2018-07-10T12:20:43.571Z,5.00
2018-07-10T12:23:12.508Z,4.10
2018-07-10T12:25:44.375Z,5.05
2018-07-10T12:28:14.749Z,4.50
2018-07-10T12:30:43.358Z,5.00
2018-07-10T12:33:11.979Z,4.70
2018-07-10T12:35:40.075Z,4.60
2018-07-10T12:38:08.679Z,5.10
2018-07-10T12:40:37.411Z,5.63
2018-07-10T12:43:05.904Z,5.70
2018-07-10T12:45:34.289Z,6.20
2018-07-10T12:48:02.649Z,7.20
2018-07-10T12:50:31.507Z,6.67
2018-07-10T12:53:00.116Z,7.00
2018-07-10T12:55:29.516Z,6.55
2018-07-10T12:57:57.734Z,6.22
2018-07-10T13:00:27.848Z,6.60
2018-07-10T13:02:57.268Z,6.25
2018-07-10T13:05:34.608Z,6.03
2018-07-10T13:08:03.572Z,6.05
2018-07-10T13:10:31.796Z,6.30
2018-07-10T13:13:00.512Z,6.22
2018-07-10T13:15:29.565Z,6.42
2018-07-10T13:17:58.902Z,6.80
2018-07-10T13:20:28.504Z,5.92
2018-07-10T13:22:56.973Z,6.10
2018-07-10T13:25:25.487Z,7.08
2018-07-10T13:27:53.991Z,6.92
2018-07-10T13:30:23.123Z,7.25
2018-07-10T13:32:51.587Z,7.08
2018-07-10T13:35:20.079Z,7.30
2018-07-10T13:37:49.840Z,6.93
2018-07-10T13:40:18.405Z,7.75
2018-07-10T13:42:51.175Z,8.10
2018-07-10T13:45:20.421Z,6.40
2018-07-10T13:47:49.132Z,6.60
2018-07-10T13:50:20.479Z,6.42
2018-07-10T13:52:49.017Z,7.22
2018-07-10T13:55:17.820Z,7.80
2018-07-10T13:57:54.351Z,7.35
2018-07-10T14:00:22.833Z,7.05
2018-07-10T14:02:53.612Z,6.70
2018-07-10T14:05:22.649Z,7.25
2018-07-10T14:07:50.830Z,6.35
2018-07-10T14:10:19.432Z,6.87
2018-07-10T14:12:47.969Z,7.03
2018-07-10T14:15:17.159Z,7.50
2018-07-10T14:17:45.896Z,7.75
2018-07-10T14:20:14.452Z,7.03
2018-07-10T14:22:43.094Z,7.47
2018-07-10T14:25:11.586Z,7.90
2018-07-10T14:27:41.021Z,7.97
2018-07-10T14:30:09.528Z,7.30
2018-07-10T14:32:37.957Z,7.30
2018-07-10T14:35:06.525Z,7.45
2018-07-10T14:37:35.055Z,7.83
2018-07-10T14:40:03.475Z,7.33
2018-07-10T14:42:32.123Z,8.30
2018-07-10T14:45:03.710Z,8.33
2018-07-10T14:47:32.372Z,7.87
2018-07-10T14:50:01.525Z,8.28
2018-07-10T14:52:30.776Z,8.98
2018-07-10T14:55:00.180Z,8.98
2018-07-10T14:57:30.064Z,8.48
2018-07-10T15:00:00.584Z,8.45
2018-07-10T15:02:29.584Z,9.73
2018-07-10T15:04:58.600Z,10.35
2018-07-10T15:07:27.852Z,9.40
2018-07-10T15:09:56.915Z,9.35
2018-07-10T15:12:25.931Z,9.15
2018-07-10T15:14:56.295Z,9.45
2018-07-10T15:17:31.095Z,8.90
2018-07-10T15:20:04.489Z,11.03
2018-07-10T15:22:35.095Z,9.35
2018-07-10T15:25:04.127Z,9.70
2018-07-10T15:27:33.500Z,9.20
2018-07-10T15:30:07.246Z,8.85
2018-07-10T15:32:36.355Z,8.60
2018-07-10T15:35:05.267Z,8.13
2018-07-10T15:37:34.311Z,7.97
2018-07-10T15:40:03.512Z,8.00
2018-07-10T15:42:32.696Z,7.23
2018-07-10T15:45:01.803Z,7.05
2018-07-10T15:47:30.999Z,7.08
2018-07-10T15:49:59.793Z,6.95
2018-07-10T15:52:28.923Z,7.12
2018-07-10T15:54:58.003Z,7.40
2018-07-10T15:57:27.336Z,6.70
2018-07-10T15:59:57.013Z,8.00
2018-07-10T16:02:26.317Z,7.47
2018-07-10T16:04:55.806Z,7.17
2018-07-10T16:07:24.658Z,7.60
2018-07-10T16:09:53.616Z,7.10
2018-07-10T16:12:23.364Z,7.33
2018-07-10T16:14:52.166Z,7.50
2018-07-10T16:17:23.954Z,8.25
2018-07-10T16:19:53.386Z,7.00
2018-07-10T16:22:25.341Z,7.25
2018-07-10T16:24:57.854Z,7.70
2018-07-10T16:27:32.008Z,8.50
2018-07-10T16:30:02.940Z,7.85
2018-07-10T16:32:32.295Z,7.37
2018-07-10T16:35:02.266Z,7.97
2018-07-10T16:37:31.915Z,7.80
2018-07-10T16:40:01.458Z,8.30
2018-07-10T16:42:35.032Z,6.60
2018-07-10T16:45:05.549Z,6.30
2018-07-10T16:47:46.375Z,5.60
2018-07-10T16:50:15.251Z,6.00
2018-07-10T16:52:49.658Z,5.60
2018-07-10T16:55:18.380Z,5.10
2018-07-10T16:57:47.935Z,5.22
2018-07-10T17:00:18.130Z,4.90
2018-07-10T17:02:48.103Z,5.28
2018-07-10T17:05:16.898Z,5.97
2018-07-10T17:07:46.038Z,5.92
2018-07-10T17:10:15.340Z,5.47
2018-07-10T17:12:44.819Z,5.40
2018-07-10T17:15:14.292Z,6.28
2018-07-10T17:17:42.926Z,6.22
2018-07-10T17:20:14.456Z,6.40
2018-07-10T17:22:44.161Z,6.08
2018-07-10T17:25:14.442Z,6.65
2018-07-10T17:27:46.904Z,6.28
2018-07-10T17:30:16.143Z,7.00
2018-07-10T17:32:45.845Z,7.25
2018-07-10T17:35:15.387Z,5.47
2018-07-10T17:37:50.975Z,6.67
2018-07-10T17:40:20.598Z,6.50
2018-07-10T17:42:49.687Z,6.85
2018-07-10T17:45:21.671Z,6.50
2018-07-10T17:47:51.187Z,6.47
2018-07-10T17:50:21.031Z,5.83
2018-07-10T17:52:50.659Z,5.55
2018-07-10T17:55:24.991Z,5.87
2018-07-10T17:57:58.003Z,6.00
2018-07-10T18:00:27.067Z,5.90
2018-07-10T18:02:56.219Z,6.08
2018-07-10T18:05:25.349Z,6.45
2018-07-10T18:07:54.950Z,6.20
2018-07-10T18:10:25.385Z,6.15
2018-07-10T18:12:55.117Z,7.70
2018-07-10T18:15:24.068Z,8.23
2018-07-10T18:17:53.622Z,8.18
2018-07-10T18:20:22.729Z,8.80
2018-07-10T18:22:52.717Z,8.63
2018-07-10T18:25:23.630Z,9.33
2018-07-10T18:27:56.688Z,9.25
2018-07-10T18:30:26.751Z,9.45
2018-07-10T18:32:57.046Z,9.08
2018-07-10T18:35:26.048Z,9.10
2018-07-10T18:37:55.706Z,8.60
2018-07-10T18:40:26.311Z,9.20
2018-07-10T18:42:56.334Z,9.08
2018-07-10T18:45:25.205Z,9.30
2018-07-10T18:47:54.559Z,9.70
2018-07-10T18:50:23.879Z,10.63
2018-07-10T18:52:54.067Z,10.93
2018-07-10T18:55:23.570Z,11.63
2018-07-10T18:57:55.011Z,11.08
2018-07-10T19:00:32.169Z,10.90
2018-07-10T19:03:07.990Z,9.65
2018-07-10T19:05:42.187Z,10.88
2018-07-10T19:08:11.162Z,9.98
2018-07-10T19:10:44.587Z,10.20
2018-07-10T19:13:14.034Z,10.05
2018-07-10T19:15:45.911Z,10.90
2018-07-10T19:18:15.090Z,11.10
2018-07-10T19:20:48.839Z,10.70
2018-07-10T19:23:20.269Z,11.12
2018-07-10T19:25:49.781Z,11.65
2018-07-10T19:28:18.812Z,10.73
2018-07-10T19:31:01.144Z,11.25
2018-07-10T19:33:30.309Z,11.40
2018-07-10T19:35:59.003Z,11.60
2018-07-10T19:38:28.241Z,11.97
2018-07-10T19:40:57.301Z,12.70
2018-07-10T19:43:26.744Z,12.17
2018-07-10T19:45:55.707Z,12.53
2018-07-10T19:48:24.868Z,12.63
2018-07-10T19:50:54.987Z,12.63
2018-07-10T19:53:24.051Z,13.53
2018-07-10T19:55:52.879Z,13.40
2018-07-10T19:58:32.180Z,14.35
2018-07-10T20:01:33.312Z,14.58
2018-07-10T20:04:16.392Z,14.65
2018-07-10T20:08:57.047Z,14.83
2018-07-10T20:11:32.862Z,15.20
2018-07-10T20:14:02.655Z,16.87
2018-07-10T20:16:42.228Z,17.07
2018-07-10T20:19:22.853Z,17.37
2018-07-10T20:24:08.910Z,17.12
2018-07-10T20:26:52.509Z,18.82
2018-07-10T20:29:41.917Z,19.52
2018-07-10T20:32:15.743Z,18.95
2018-07-10T20:34:52.474Z,18.23
2018-07-10T20:37:28.701Z,19.23
2018-07-10T20:39:58.115Z,18.62
2018-07-10T20:42:31.730Z,19.30
2018-07-10T20:45:06.777Z,18.35
2018-07-10T20:47:49.830Z,18.30
2018-07-10T20:50:27.407Z,18.50
2018-07-10T20:53:02.382Z,19.62
2018-07-10T20:55:33.510Z,21.47
2018-07-10T20:58:05.905Z,18.67
2018-07-10T21:00:42.609Z,18.67
2018-07-10T21:04:14.727Z,19.37
2018-07-10T21:06:59.104Z,22.55
2018-07-10T21:09:36.567Z,20.00
2018-07-10T21:12:11.503Z,18.12
2018-07-10T21:15:18.116Z,19.27
2018-07-10T21:18:39.669Z,19.98
2018-07-10T21:21:11.811Z,18.73
2018-07-10T21:24:17.799Z,19.10
2018-07-10T21:27:09.122Z,18.60
2018-07-10T21:29:45.858Z,18.50
2018-07-10T21:32:23.096Z,18.90
2018-07-10T21:34:51.943Z,18.90
2018-07-10T21:39:37.020Z,19.12
2018-07-10T21:42:29.063Z,18.20
2018-07-10T21:45:11.517Z,17.50
2018-07-10T21:47:59.423Z,17.50
2018-07-10T21:50:35.589Z,19.62
2018-07-10T21:53:05.024Z,18.10
2018-07-10T21:55:34.372Z,17.75
2018-07-10T21:58:03.582Z,17.98
2018-07-10T22:00:43.219Z,17.62
2018-07-10T22:03:12.433Z,18.73
2018-07-10T22:05:41.720Z,18.00
2018-07-10T22:08:10.491Z,19.23
2018-07-10T22:10:39.140Z,17.95
2018-07-10T22:13:07.764Z,18.98
2018-07-10T22:15:36.671Z,19.45
2018-07-10T22:18:06.200Z,18.77
2018-07-10T22:20:34.916Z,20.60
2018-07-10T22:23:03.845Z,18.90
2018-07-10T22:25:32.909Z,18.80
2018-07-10T22:28:02.045Z,18.67
2018-07-10T22:30:36.487Z,19.60
2018-07-10T22:33:05.451Z,18.05
2018-07-10T22:35:34.005Z,17.30
2018-07-10T22:38:02.602Z,17.25
2018-07-10T22:40:33.455Z,17.35
2018-07-10T22:43:03.082Z,17.17
2018-07-10T22:45:32.207Z,18.12
2018-07-10T22:48:01.190Z,17.98
2018-07-10T22:50:29.812Z,17.65
2018-07-10T22:52:59.403Z,18.00
2018-07-10T22:55:30.200Z,17.42
2018-07-10T22:58:01.644Z,16.93
2018-07-10T23:00:31.076Z,17.50
2018-07-10T23:03:00.044Z,18.33
2018-07-10T23:05:28.812Z,17.37
2018-07-10T23:07:57.527Z,16.23
2018-07-10T23:10:26.111Z,17.30
2018-07-10T23:12:54.610Z,17.87
2018-07-10T23:15:22.999Z,16.45
2018-07-10T23:17:51.087Z,16.40
2018-07-10T23:20:20.650Z,17.60
2018-07-10T23:22:55.957Z,17.42
2018-07-10T23:25:26.403Z,18.17
2018-07-10T23:27:58.585Z,17.35
2018-07-10T23:30:27.359Z,17.05
2018-07-10T23:32:58.035Z,17.92
2018-07-10T23:35:26.363Z,15.48
2018-07-10T23:37:57.081Z,16.85
2018-07-10T23:40:25.949Z,16.10
2018-07-10T23:42:54.643Z,16.50
2018-07-10T23:45:26.501Z,17.00
2018-07-10T23:48:01.369Z,16.37
2018-07-10T23:50:30.500Z,15.35
2018-07-10T23:53:12.065Z,18.12
2018-07-10T23:55:41.142Z,16.17
2018-07-10T23:58:09.592Z,16.57
